sensor_id;sensor_type;location;lat;lon;timestamp;temperature;humidity
13673;DHT22;6909;52.202;9.876;2023-03-31T00:01:18;10.60;1.00
13673;DHT22;6909;52.202;9.876;2023-03-31T00:03:45;10.60;1.00
13673;DHT22;6909;52.202;9.876;2023-03-31T00:06:13;10.60;99.90
13673;DHT22;6909;52.202;9.876;2023-03-31T00:08:43;10.60;1.00
13673;DHT22;6909;52.202;9.876;2023-03-31T00:11:09;10.70;1.00
13673;DHT22;6909;52.202;9.876;2023-03-31T00:13:38;10.80;99.90
13673;DHT22;6909;52.202;9.876;2023-03-31T00:16:06;10.80;1.00
13673;DHT22;6909;52.202;9.876;2023-03-31T00:18:34;10.90;1.00
13673;DHT22;6909;52.202;9.876;2023-03-31T00:21:08;10.90;99.90
13673;DHT22;6909;52.202;9.876;2023-03-31T00:23:39;10.90;95.80
13673;DHT22;6909;52.202;9.876;2023-03-31T00:26:05;10.80;20.70
13673;DHT22;6909;52.202;9.876;2023-03-31T00:28:32;10.90;1.00
13673;DHT22;6909;52.202;9.876;2023-03-31T00:31:02;10.80;1.00
13673;DHT22;6909;52.202;9.876;2023-03-31T00:33:29;10.80;1.00
13673;DHT22;6909;52.202;9.876;2023-03-31T00:35:56;10.80;1.00
13673;DHT22;6909;52.202;9.876;2023-03-31T00:38:30;10.80;99.90
13673;DHT22;6909;52.202;9.876;2023-03-31T00:40:58;10.70;99.90
13673;DHT22;6909;52.202;9.876;2023-03-31T00:43:30;10.70;99.90
13673;DHT22;6909;52.202;9.876;2023-03-31T00:46:11;10.70;99.90
13673;DHT22;6909;52.202;9.876;2023-03-31T00:48:41;10.60;75.40
13673;DHT22;6909;52.202;9.876;2023-03-31T00:51:11;10.60;87.60
13673;DHT22;6909;52.202;9.876;2023-03-31T00:53:37;10.70;34.90
13673;DHT22;6909;52.202;9.876;2023-03-31T00:56:07;10.70;52.70
13673;DHT22;6909;52.202;9.876;2023-03-31T00:58:34;10.70;15.40
13673;DHT22;6909;52.202;9.876;2023-03-31T01:01:11;10.80;1.00
13673;DHT22;6909;52.202;9.876;2023-03-31T01:03:40;10.80;1.00
13673;DHT22;6909;52.202;9.876;2023-03-31T01:06:10;10.90;1.00
13673;DHT22;6909;52.202;9.876;2023-03-31T01:08:39;10.80;1.00
13673;DHT22;6909;52.202;9.876;2023-03-31T01:11:11;10.80;1.00
13673;DHT22;6909;52.202;9.876;2023-03-31T01:13:40;10.80;1.00
13673;DHT22;6909;52.202;9.876;2023-03-31T01:16:08;10.70;1.00
13673;DHT22;6909;52.202;9.876;2023-03-31T01:18:36;10.70;1.00
13673;DHT22;6909;52.202;9.876;2023-03-31T01:24:24;10.70;1.00
13673;DHT22;6909;52.202;9.876;2023-03-31T01:27:04;10.70;1.00
13673;DHT22;6909;52.202;9.876;2023-03-31T01:29:51;10.70;1.00
13673;DHT22;6909;52.202;9.876;2023-03-31T01:32:49;10.60;1.00
13673;DHT22;6909;52.202;9.876;2023-03-31T01:35:50;10.60;1.00
13673;DHT22;6909;52.202;9.876;2023-03-31T01:41:38;10.60;1.00
13673;DHT22;6909;52.202;9.876;2023-03-31T01:44:15;10.60;1.00
13673;DHT22;6909;52.202;9.876;2023-03-31T01:46:51;10.50;1.00
13673;DHT22;6909;52.202;9.876;2023-03-31T01:49:23;10.30;1.00
13673;DHT22;6909;52.202;9.876;2023-03-31T01:51:59;10.20;1.00
13673;DHT22;6909;52.202;9.876;2023-03-31T01:54:33;10.10;1.00
13673;DHT22;6909;52.202;9.876;2023-03-31T01:57:10;10.10;1.00
13673;DHT22;6909;52.202;9.876;2023-03-31T01:59:41;10.00;1.00
13673;DHT22;6909;52.202;9.876;2023-03-31T02:02:12;10.00;1.00
13673;DHT22;6909;52.202;9.876;2023-03-31T02:04:43;10.00;1.00
13673;DHT22;6909;52.202;9.876;2023-03-31T02:07:15;9.90;1.00
13673;DHT22;6909;52.202;9.876;2023-03-31T02:09:45;10.00;1.00
13673;DHT22;6909;52.202;9.876;2023-03-31T02:12:16;10.00;1.00
13673;DHT22;6909;52.202;9.876;2023-03-31T02:14:46;10.00;1.00
13673;DHT22;6909;52.202;9.876;2023-03-31T02:17:16;10.00;1.00
13673;DHT22;6909;52.202;9.876;2023-03-31T02:19:46;10.10;1.00
13673;DHT22;6909;52.202;9.876;2023-03-31T02:22:15;10.20;1.00
13673;DHT22;6909;52.202;9.876;2023-03-31T02:24:45;10.20;1.00
13673;DHT22;6909;52.202;9.876;2023-03-31T02:27:17;10.30;1.00
13673;DHT22;6909;52.202;9.876;2023-03-31T02:29:46;10.30;1.00
13673;DHT22;6909;52.202;9.876;2023-03-31T02:32:17;10.30;1.00
13673;DHT22;6909;52.202;9.876;2023-03-31T02:34:46;10.30;1.00
13673;DHT22;6909;52.202;9.876;2023-03-31T02:37:13;10.20;1.00
13673;DHT22;6909;52.202;9.876;2023-03-31T02:39:42;10.20;1.00
13673;DHT22;6909;52.202;9.876;2023-03-31T02:42:10;10.30;1.00
13673;DHT22;6909;52.202;9.876;2023-03-31T02:44:38;10.30;1.00
13673;DHT22;6909;52.202;9.876;2023-03-31T02:47:07;10.30;1.00
13673;DHT22;6909;52.202;9.876;2023-03-31T02:49:35;10.20;1.00
13673;DHT22;6909;52.202;9.876;2023-03-31T02:52:24;10.20;1.00
13673;DHT22;6909;52.202;9.876;2023-03-31T02:55:29;10.30;1.00
13673;DHT22;6909;52.202;9.876;2023-03-31T02:58:25;10.30;1.00
13673;DHT22;6909;52.202;9.876;2023-03-31T03:01:06;10.20;1.00
13673;DHT22;6909;52.202;9.876;2023-03-31T03:03:43;10.20;1.00
13673;DHT22;6909;52.202;9.876;2023-03-31T03:06:20;10.20;1.00
13673;DHT22;6909;52.202;9.876;2023-03-31T03:11:46;10.20;1.00
13673;DHT22;6909;52.202;9.876;2023-03-31T03:14:25;10.20;1.00
13673;DHT22;6909;52.202;9.876;2023-03-31T03:16:57;10.20;1.00
13673;DHT22;6909;52.202;9.876;2023-03-31T03:19:26;10.10;1.00
13673;DHT22;6909;52.202;9.876;2023-03-31T03:21:57;10.10;99.90
13673;DHT22;6909;52.202;9.876;2023-03-31T03:24:24;10.00;99.90
13673;DHT22;6909;52.202;9.876;2023-03-31T03:26:54;10.00;99.90
13673;DHT22;6909;52.202;9.876;2023-03-31T03:29:21;10.00;99.90
13673;DHT22;6909;52.202;9.876;2023-03-31T03:31:47;10.00;99.90
13673;DHT22;6909;52.202;9.876;2023-03-31T03:34:16;9.90;99.90
13673;DHT22;6909;52.202;9.876;2023-03-31T03:36:45;9.80;1.00
13673;DHT22;6909;52.202;9.876;2023-03-31T03:39:12;9.90;99.90
13673;DHT22;6909;52.202;9.876;2023-03-31T03:41:39;9.80;99.90
13673;DHT22;6909;52.202;9.876;2023-03-31T03:44:05;9.80;99.90
13673;DHT22;6909;52.202;9.876;2023-03-31T03:46:32;9.80;1.00
13673;DHT22;6909;52.202;9.876;2023-03-31T03:48:59;9.70;1.00
13673;DHT22;6909;52.202;9.876;2023-03-31T03:51:26;9.60;1.00
13673;DHT22;6909;52.202;9.876;2023-03-31T03:53:53;9.60;1.00
13673;DHT22;6909;52.202;9.876;2023-03-31T03:56:20;9.60;1.00
13673;DHT22;6909;52.202;9.876;2023-03-31T04:01:15;9.50;1.00
13673;DHT22;6909;52.202;9.876;2023-03-31T04:03:42;9.50;1.00
13673;DHT22;6909;52.202;9.876;2023-03-31T04:06:09;9.50;1.00
13673;DHT22;6909;52.202;9.876;2023-03-31T04:08:37;9.50;1.00
13673;DHT22;6909;52.202;9.876;2023-03-31T04:11:10;9.40;12.30
13673;DHT22;6909;52.202;9.876;2023-03-31T04:13:38;9.40;99.90
13673;DHT22;6909;52.202;9.876;2023-03-31T04:16:06;9.40;99.90
13673;DHT22;6909;52.202;9.876;2023-03-31T04:18:32;9.40;99.90
13673;DHT22;6909;52.202;9.876;2023-03-31T04:21:01;9.40;99.90
13673;DHT22;6909;52.202;9.876;2023-03-31T04:23:29;9.50;99.90
13673;DHT22;6909;52.202;9.876;2023-03-31T04:25:58;9.50;99.90
13673;DHT22;6909;52.202;9.876;2023-03-31T04:28:25;9.50;99.90
13673;DHT22;6909;52.202;9.876;2023-03-31T04:30:59;9.50;99.90
13673;DHT22;6909;52.202;9.876;2023-03-31T04:33:25;9.50;1.00
13673;DHT22;6909;52.202;9.876;2023-03-31T04:35:52;9.50;1.00
13673;DHT22;6909;52.202;9.876;2023-03-31T04:38:20;9.50;1.00
13673;DHT22;6909;52.202;9.876;2023-03-31T04:40:49;9.50;1.00
13673;DHT22;6909;52.202;9.876;2023-03-31T04:43:18;9.60;1.00
13673;DHT22;6909;52.202;9.876;2023-03-31T04:45:45;9.60;1.00
13673;DHT22;6909;52.202;9.876;2023-03-31T04:48:12;9.70;1.00
13673;DHT22;6909;52.202;9.876;2023-03-31T04:50:39;9.70;1.00
13673;DHT22;6909;52.202;9.876;2023-03-31T04:53:06;9.70;1.00
13673;DHT22;6909;52.202;9.876;2023-03-31T04:55:32;9.80;99.90
13673;DHT22;6909;52.202;9.876;2023-03-31T04:57:59;9.80;99.90
13673;DHT22;6909;52.202;9.876;2023-03-31T05:00:27;9.80;99.90
13673;DHT22;6909;52.202;9.876;2023-03-31T05:02:54;9.80;99.90
13673;DHT22;6909;52.202;9.876;2023-03-31T05:05:21;9.90;30.10
13673;DHT22;6909;52.202;9.876;2023-03-31T05:07:48;9.90;1.00
13673;DHT22;6909;52.202;9.876;2023-03-31T05:10:15;10.00;1.00
13673;DHT22;6909;52.202;9.876;2023-03-31T05:12:41;10.20;1.00
13673;DHT22;6909;52.202;9.876;2023-03-31T05:15:09;10.20;99.90
13673;DHT22;6909;52.202;9.876;2023-03-31T05:17:37;10.30;99.90
13673;DHT22;6909;52.202;9.876;2023-03-31T05:20:04;10.40;90.50
13673;DHT22;6909;52.202;9.876;2023-03-31T05:22:33;10.30;72.50
13673;DHT22;6909;52.202;9.876;2023-03-31T05:25:00;10.20;99.90
13673;DHT22;6909;52.202;9.876;2023-03-31T05:27:27;10.10;99.90
13673;DHT22;6909;52.202;9.876;2023-03-31T05:29:54;10.00;99.90
13673;DHT22;6909;52.202;9.876;2023-03-31T05:32:20;10.00;1.00
13673;DHT22;6909;52.202;9.876;2023-03-31T05:34:48;10.00;1.00
13673;DHT22;6909;52.202;9.876;2023-03-31T05:37:17;9.90;1.00
13673;DHT22;6909;52.202;9.876;2023-03-31T05:39:43;10.00;1.00
13673;DHT22;6909;52.202;9.876;2023-03-31T05:42:10;10.00;1.00
13673;DHT22;6909;52.202;9.876;2023-03-31T05:44:37;10.00;1.00
13673;DHT22;6909;52.202;9.876;2023-03-31T05:47:04;10.10;1.00
13673;DHT22;6909;52.202;9.876;2023-03-31T05:49:30;10.20;99.90
13673;DHT22;6909;52.202;9.876;2023-03-31T05:51:59;10.20;99.90
13673;DHT22;6909;52.202;9.876;2023-03-31T05:54:26;10.20;99.90
13673;DHT22;6909;52.202;9.876;2023-03-31T05:56:52;10.20;99.90
13673;DHT22;6909;52.202;9.876;2023-03-31T05:59:19;10.20;99.90
13673;DHT22;6909;52.202;9.876;2023-03-31T06:01:46;10.10;99.90
13673;DHT22;6909;52.202;9.876;2023-03-31T06:04:13;10.20;99.90
13673;DHT22;6909;52.202;9.876;2023-03-31T06:06:40;10.20;1.00
13673;DHT22;6909;52.202;9.876;2023-03-31T06:09:08;10.20;1.00
13673;DHT22;6909;52.202;9.876;2023-03-31T06:11:36;10.20;1.00
13673;DHT22;6909;52.202;9.876;2023-03-31T06:14:03;10.20;1.00
13673;DHT22;6909;52.202;9.876;2023-03-31T06:16:30;10.30;1.00
13673;DHT22;6909;52.202;9.876;2023-03-31T06:18:56;10.30;1.00
13673;DHT22;6909;52.202;9.876;2023-03-31T06:21:23;10.30;1.00
13673;DHT22;6909;52.202;9.876;2023-03-31T06:23:50;10.40;1.00
13673;DHT22;6909;52.202;9.876;2023-03-31T06:26:21;10.50;1.00
13673;DHT22;6909;52.202;9.876;2023-03-31T06:28:48;10.50;1.00
13673;DHT22;6909;52.202;9.876;2023-03-31T06:31:16;10.50;1.00
13673;DHT22;6909;52.202;9.876;2023-03-31T06:33:43;10.50;1.00
13673;DHT22;6909;52.202;9.876;2023-03-31T06:36:12;10.40;1.00
13673;DHT22;6909;52.202;9.876;2023-03-31T06:38:40;10.40;1.00
13673;DHT22;6909;52.202;9.876;2023-03-31T06:41:08;10.30;1.00
13673;DHT22;6909;52.202;9.876;2023-03-31T06:43:36;10.30;71.20
13673;DHT22;6909;52.202;9.876;2023-03-31T06:46:04;10.30;99.90
13673;DHT22;6909;52.202;9.876;2023-03-31T06:48:31;10.30;1.00
13673;DHT22;6909;52.202;9.876;2023-03-31T06:50:59;10.20;1.00
13673;DHT22;6909;52.202;9.876;2023-03-31T06:53:26;10.20;99.90
13673;DHT22;6909;52.202;9.876;2023-03-31T06:55:53;10.30;1.00
13673;DHT22;6909;52.202;9.876;2023-03-31T06:58:20;10.30;1.00
13673;DHT22;6909;52.202;9.876;2023-03-31T07:00:48;10.30;1.00
13673;DHT22;6909;52.202;9.876;2023-03-31T07:03:15;10.30;90.00
13673;DHT22;6909;52.202;9.876;2023-03-31T07:05:47;10.40;8.90
13673;DHT22;6909;52.202;9.876;2023-03-31T07:08:14;10.40;99.90
13673;DHT22;6909;52.202;9.876;2023-03-31T07:10:42;10.50;96.80
13673;DHT22;6909;52.202;9.876;2023-03-31T07:13:11;10.50;1.00
13673;DHT22;6909;52.202;9.876;2023-03-31T07:15:38;10.50;99.90
13673;DHT22;6909;52.202;9.876;2023-03-31T07:18:06;10.50;1.00
13673;DHT22;6909;52.202;9.876;2023-03-31T07:20:34;10.60;99.90
13673;DHT22;6909;52.202;9.876;2023-03-31T07:23:02;10.60;99.90
13673;DHT22;6909;52.202;9.876;2023-03-31T07:25:30;10.50;1.00
13673;DHT22;6909;52.202;9.876;2023-03-31T07:27:57;10.60;1.00
13673;DHT22;6909;52.202;9.876;2023-03-31T07:30:23;10.50;99.90
13673;DHT22;6909;52.202;9.876;2023-03-31T07:32:51;10.60;2.40
13673;DHT22;6909;52.202;9.876;2023-03-31T07:35:20;10.60;1.00
13673;DHT22;6909;52.202;9.876;2023-03-31T07:37:48;10.60;99.90
13673;DHT22;6909;52.202;9.876;2023-03-31T07:40:18;10.70;1.00
13673;DHT22;6909;52.202;9.876;2023-03-31T07:42:45;10.70;1.00
13673;DHT22;6909;52.202;9.876;2023-03-31T07:45:14;10.70;1.00
13673;DHT22;6909;52.202;9.876;2023-03-31T07:47:41;10.70;1.00
13673;DHT22;6909;52.202;9.876;2023-03-31T07:50:09;10.80;99.90
13673;DHT22;6909;52.202;9.876;2023-03-31T07:52:37;10.80;99.90
13673;DHT22;6909;52.202;9.876;2023-03-31T07:55:05;10.80;99.90
13673;DHT22;6909;52.202;9.876;2023-03-31T07:57:32;11.00;1.00
13673;DHT22;6909;52.202;9.876;2023-03-31T07:59:59;11.10;1.00
13673;DHT22;6909;52.202;9.876;2023-03-31T08:02:26;11.30;1.00
13673;DHT22;6909;52.202;9.876;2023-03-31T08:04:53;11.40;1.00
13673;DHT22;6909;52.202;9.876;2023-03-31T08:07:20;11.40;1.00
13673;DHT22;6909;52.202;9.876;2023-03-31T08:09:48;11.40;1.00
13673;DHT22;6909;52.202;9.876;2023-03-31T08:12:15;11.40;1.00
13673;DHT22;6909;52.202;9.876;2023-03-31T08:14:41;11.30;1.00
13673;DHT22;6909;52.202;9.876;2023-03-31T08:17:08;11.30;1.00
13673;DHT22;6909;52.202;9.876;2023-03-31T08:19:35;11.30;1.00
13673;DHT22;6909;52.202;9.876;2023-03-31T08:22:02;11.30;99.90
13673;DHT22;6909;52.202;9.876;2023-03-31T08:24:29;11.30;99.90
13673;DHT22;6909;52.202;9.876;2023-03-31T08:26:57;11.30;99.90
13673;DHT22;6909;52.202;9.876;2023-03-31T08:29:24;11.50;88.20
13673;DHT22;6909;52.202;9.876;2023-03-31T08:31:51;11.60;1.00
13673;DHT22;6909;52.202;9.876;2023-03-31T08:34:19;11.70;1.00
13673;DHT22;6909;52.202;9.876;2023-03-31T08:36:45;11.80;1.00
13673;DHT22;6909;52.202;9.876;2023-03-31T08:39:13;11.70;1.00
13673;DHT22;6909;52.202;9.876;2023-03-31T08:41:48;11.80;1.00
13673;DHT22;6909;52.202;9.876;2023-03-31T08:44:21;11.80;1.00
13673;DHT22;6909;52.202;9.876;2023-03-31T08:46:54;11.90;99.90
13673;DHT22;6909;52.202;9.876;2023-03-31T08:49:22;11.90;99.90
13673;DHT22;6909;52.202;9.876;2023-03-31T08:51:52;11.90;99.90
13673;DHT22;6909;52.202;9.876;2023-03-31T08:54:28;11.90;1.00
13673;DHT22;6909;52.202;9.876;2023-03-31T08:56:56;11.90;1.00
13673;DHT22;6909;52.202;9.876;2023-03-31T08:59:28;11.90;1.00
13673;DHT22;6909;52.202;9.876;2023-03-31T09:01:59;12.00;1.00
13673;DHT22;6909;52.202;9.876;2023-03-31T09:04:51;12.00;1.00
13673;DHT22;6909;52.202;9.876;2023-03-31T09:07:27;12.00;1.00
13673;DHT22;6909;52.202;9.876;2023-03-31T09:10:04;12.00;1.00
13673;DHT22;6909;52.202;9.876;2023-03-31T09:12:43;11.90;1.00
13673;DHT22;6909;52.202;9.876;2023-03-31T09:15:19;11.80;1.00
13673;DHT22;6909;52.202;9.876;2023-03-31T09:17:48;11.70;1.00
13673;DHT22;6909;52.202;9.876;2023-03-31T09:20:18;11.60;1.00
13673;DHT22;6909;52.202;9.876;2023-03-31T09:22:48;11.50;96.30
13673;DHT22;6909;52.202;9.876;2023-03-31T09:25:18;11.40;99.90
13673;DHT22;6909;52.202;9.876;2023-03-31T09:27:46;11.30;1.00
13673;DHT22;6909;52.202;9.876;2023-03-31T09:30:16;11.20;1.00
13673;DHT22;6909;52.202;9.876;2023-03-31T09:32:47;11.20;1.00
13673;DHT22;6909;52.202;9.876;2023-03-31T09:35:18;11.10;1.00
13673;DHT22;6909;52.202;9.876;2023-03-31T09:37:47;11.10;1.00
13673;DHT22;6909;52.202;9.876;2023-03-31T09:40:17;11.00;22.20
13673;DHT22;6909;52.202;9.876;2023-03-31T09:42:44;10.90;1.00
13673;DHT22;6909;52.202;9.876;2023-03-31T09:45:16;10.80;99.90
13673;DHT22;6909;52.202;9.876;2023-03-31T09:47:44;10.70;1.00
13673;DHT22;6909;52.202;9.876;2023-03-31T09:50:13;10.60;1.00
13673;DHT22;6909;52.202;9.876;2023-03-31T09:52:42;10.60;1.00
13673;DHT22;6909;52.202;9.876;2023-03-31T09:55:18;10.60;1.00
13673;DHT22;6909;52.202;9.876;2023-03-31T09:57:45;10.60;1.00
13673;DHT22;6909;52.202;9.876;2023-03-31T10:00:18;10.60;1.00
13673;DHT22;6909;52.202;9.876;2023-03-31T10:02:49;10.60;99.90
13673;DHT22;6909;52.202;9.876;2023-03-31T10:05:28;10.60;99.90
13673;DHT22;6909;52.202;9.876;2023-03-31T10:08:18;10.60;99.90
13673;DHT22;6909;52.202;9.876;2023-03-31T10:10:47;10.70;1.00
13673;DHT22;6909;52.202;9.876;2023-03-31T10:13:17;10.70;1.00
13673;DHT22;6909;52.202;9.876;2023-03-31T10:15:46;10.80;1.00
13673;DHT22;6909;52.202;9.876;2023-03-31T10:18:31;10.80;1.00
13673;DHT22;6909;52.202;9.876;2023-03-31T10:21:00;10.90;1.00
13673;DHT22;6909;52.202;9.876;2023-03-31T10:23:29;10.90;96.40
13673;DHT22;6909;52.202;9.876;2023-03-31T10:25:57;10.90;1.00
13673;DHT22;6909;52.202;9.876;2023-03-31T10:28:25;10.90;1.00
13673;DHT22;6909;52.202;9.876;2023-03-31T10:30:54;10.80;99.90
13673;DHT22;6909;52.202;9.876;2023-03-31T10:33:25;10.90;9.50
13673;DHT22;6909;52.202;9.876;2023-03-31T10:35:54;10.80;99.90
13673;DHT22;6909;52.202;9.876;2023-03-31T10:38:25;10.90;99.90
13673;DHT22;6909;52.202;9.876;2023-03-31T10:40:55;10.90;38.90
13673;DHT22;6909;52.202;9.876;2023-03-31T10:43:26;11.00;1.00
13673;DHT22;6909;52.202;9.876;2023-03-31T10:45:56;10.80;99.90
13673;DHT22;6909;52.202;9.876;2023-03-31T10:48:26;10.90;99.90
13673;DHT22;6909;52.202;9.876;2023-03-31T10:50:53;10.90;99.90
13673;DHT22;6909;52.202;9.876;2023-03-31T10:53:20;10.80;1.00
13673;DHT22;6909;52.202;9.876;2023-03-31T10:56:08;10.80;1.00
13673;DHT22;6909;52.202;9.876;2023-03-31T10:58:45;10.60;1.00
13673;DHT22;6909;52.202;9.876;2023-03-31T11:01:27;10.60;1.00
13673;DHT22;6909;52.202;9.876;2023-03-31T11:04:15;10.50;99.90
13673;DHT22;6909;52.202;9.876;2023-03-31T11:06:54;10.60;1.00
13673;DHT22;6909;52.202;9.876;2023-03-31T11:09:35;10.60;1.00
13673;DHT22;6909;52.202;9.876;2023-03-31T11:12:15;10.60;1.00
13673;DHT22;6909;52.202;9.876;2023-03-31T11:14:53;10.60;1.00
13673;DHT22;6909;52.202;9.876;2023-03-31T11:17:32;10.50;1.00
13673;DHT22;6909;52.202;9.876;2023-03-31T11:20:12;10.60;1.00
13673;DHT22;6909;52.202;9.876;2023-03-31T11:22:45;10.50;1.00
13673;DHT22;6909;52.202;9.876;2023-03-31T11:25:22;10.60;31.10
13673;DHT22;6909;52.202;9.876;2023-03-31T11:28:02;10.60;99.90
13673;DHT22;6909;52.202;9.876;2023-03-31T11:30:36;10.60;1.00
13673;DHT22;6909;52.202;9.876;2023-03-31T11:33:26;10.80;99.90
13673;DHT22;6909;52.202;9.876;2023-03-31T11:36:08;10.90;99.90
13673;DHT22;6909;52.202;9.876;2023-03-31T11:38:58;11.10;99.90
13673;DHT22;6909;52.202;9.876;2023-03-31T11:41:33;11.30;99.90
13673;DHT22;6909;52.202;9.876;2023-03-31T11:44:01;11.30;1.00
13673;DHT22;6909;52.202;9.876;2023-03-31T11:46:36;11.50;21.00
13673;DHT22;6909;52.202;9.876;2023-03-31T11:49:14;11.80;99.90
13673;DHT22;6909;52.202;9.876;2023-03-31T11:51:47;11.90;1.00
13673;DHT22;6909;52.202;9.876;2023-03-31T11:54:21;12.00;1.00
13673;DHT22;6909;52.202;9.876;2023-03-31T11:56:49;12.10;1.00
13673;DHT22;6909;52.202;9.876;2023-03-31T11:59:18;12.00;99.90
13673;DHT22;6909;52.202;9.876;2023-03-31T12:01:50;11.90;99.90
13673;DHT22;6909;52.202;9.876;2023-03-31T12:04:32;11.90;99.90
13673;DHT22;6909;52.202;9.876;2023-03-31T12:07:02;11.90;99.90
13673;DHT22;6909;52.202;9.876;2023-03-31T12:09:34;12.00;99.90
13673;DHT22;6909;52.202;9.876;2023-03-31T12:12:05;11.60;99.90
13673;DHT22;6909;52.202;9.876;2023-03-31T12:14:35;11.70;99.90
13673;DHT22;6909;52.202;9.876;2023-03-31T12:17:07;11.80;99.90
13673;DHT22;6909;52.202;9.876;2023-03-31T12:19:43;11.70;99.90
13673;DHT22;6909;52.202;9.876;2023-03-31T12:22:15;11.60;99.90
13673;DHT22;6909;52.202;9.876;2023-03-31T12:24:43;11.60;99.90
13673;DHT22;6909;52.202;9.876;2023-03-31T12:27:14;11.60;99.90
13673;DHT22;6909;52.202;9.876;2023-03-31T12:29:52;11.60;99.90
13673;DHT22;6909;52.202;9.876;2023-03-31T12:32:21;11.70;26.50
13673;DHT22;6909;52.202;9.876;2023-03-31T12:34:54;11.70;1.00
13673;DHT22;6909;52.202;9.876;2023-03-31T12:37:46;11.60;1.00
13673;DHT22;6909;52.202;9.876;2023-03-31T12:40:23;11.80;99.90
13673;DHT22;6909;52.202;9.876;2023-03-31T12:43:06;11.90;1.00
13673;DHT22;6909;52.202;9.876;2023-03-31T12:45:39;11.90;1.00
13673;DHT22;6909;52.202;9.876;2023-03-31T12:48:32;12.10;99.90
13673;DHT22;6909;52.202;9.876;2023-03-31T12:51:22;12.20;99.90
13673;DHT22;6909;52.202;9.876;2023-03-31T12:54:02;12.30;99.90
13673;DHT22;6909;52.202;9.876;2023-03-31T12:57:06;12.30;99.90
13673;DHT22;6909;52.202;9.876;2023-03-31T12:59:39;12.30;99.90
13673;DHT22;6909;52.202;9.876;2023-03-31T13:02:23;12.40;97.10
13673;DHT22;6909;52.202;9.876;2023-03-31T13:04:50;12.50;1.00
13673;DHT22;6909;52.202;9.876;2023-03-31T13:07:40;12.50;1.00
13673;DHT22;6909;52.202;9.876;2023-03-31T13:10:25;12.90;91.20
13673;DHT22;6909;52.202;9.876;2023-03-31T13:13:02;13.00;99.90
13673;DHT22;6909;52.202;9.876;2023-03-31T13:15:30;13.00;1.00
13673;DHT22;6909;52.202;9.876;2023-03-31T13:17:58;12.90;1.00
13673;DHT22;6909;52.202;9.876;2023-03-31T13:20:30;13.00;1.00
13673;DHT22;6909;52.202;9.876;2023-03-31T13:23:06;12.90;1.00
13673;DHT22;6909;52.202;9.876;2023-03-31T13:25:45;12.80;1.00
13673;DHT22;6909;52.202;9.876;2023-03-31T13:28:27;12.80;1.00
13673;DHT22;6909;52.202;9.876;2023-03-31T13:30:58;13.00;99.90
13673;DHT22;6909;52.202;9.876;2023-03-31T13:33:42;12.80;99.90
13673;DHT22;6909;52.202;9.876;2023-03-31T13:36:25;12.90;99.90
13673;DHT22;6909;52.202;9.876;2023-03-31T13:39:08;12.90;99.90
13673;DHT22;6909;52.202;9.876;2023-03-31T13:41:45;12.90;99.90
13673;DHT22;6909;52.202;9.876;2023-03-31T13:44:43;12.80;99.90
13673;DHT22;6909;52.202;9.876;2023-03-31T13:47:36;12.70;99.90
13673;DHT22;6909;52.202;9.876;2023-03-31T13:50:17;12.80;99.90
13673;DHT22;6909;52.202;9.876;2023-03-31T13:52:52;12.80;99.90
13673;DHT22;6909;52.202;9.876;2023-03-31T13:55:39;12.70;99.90
13673;DHT22;6909;52.202;9.876;2023-03-31T13:58:21;12.80;14.40
13673;DHT22;6909;52.202;9.876;2023-03-31T14:00:59;12.90;1.00
13673;DHT22;6909;52.202;9.876;2023-03-31T14:03:46;13.10;1.00
13673;DHT22;6909;52.202;9.876;2023-03-31T14:06:21;13.20;1.00
13673;DHT22;6909;52.202;9.876;2023-03-31T14:08:51;13.50;1.00
13673;DHT22;6909;52.202;9.876;2023-03-31T14:11:24;13.60;1.00
13673;DHT22;6909;52.202;9.876;2023-03-31T14:14:00;13.90;1.00
13673;DHT22;6909;52.202;9.876;2023-03-31T14:16:29;14.00;1.00
13673;DHT22;6909;52.202;9.876;2023-03-31T14:19:07;13.90;1.00
13673;DHT22;6909;52.202;9.876;2023-03-31T14:21:40;13.90;1.00
13673;DHT22;6909;52.202;9.876;2023-03-31T14:24:14;13.90;1.00
13673;DHT22;6909;52.202;9.876;2023-03-31T14:26:53;14.00;1.00
13673;DHT22;6909;52.202;9.876;2023-03-31T14:29:28;14.00;99.90
13673;DHT22;6909;52.202;9.876;2023-03-31T14:32:02;14.10;99.90
13673;DHT22;6909;52.202;9.876;2023-03-31T14:34:56;14.00;99.90
13673;DHT22;6909;52.202;9.876;2023-03-31T14:37:28;13.90;56.20
13673;DHT22;6909;52.202;9.876;2023-03-31T14:39:56;13.70;1.00
13673;DHT22;6909;52.202;9.876;2023-03-31T14:42:26;13.60;58.90
13673;DHT22;6909;52.202;9.876;2023-03-31T14:44:56;13.80;99.90
13673;DHT22;6909;52.202;9.876;2023-03-31T14:47:26;13.70;99.90
13673;DHT22;6909;52.202;9.876;2023-03-31T14:50:00;13.60;1.00
13673;DHT22;6909;52.202;9.876;2023-03-31T14:52:30;13.30;99.90
13673;DHT22;6909;52.202;9.876;2023-03-31T14:54:58;13.00;53.40
13673;DHT22;6909;52.202;9.876;2023-03-31T14:57:29;12.90;99.90
13673;DHT22;6909;52.202;9.876;2023-03-31T14:59:57;12.70;99.90
13673;DHT22;6909;52.202;9.876;2023-03-31T15:02:31;12.60;99.90
13673;DHT22;6909;52.202;9.876;2023-03-31T15:05:02;12.50;1.00
13673;DHT22;6909;52.202;9.876;2023-03-31T15:07:29;12.40;99.90
13673;DHT22;6909;52.202;9.876;2023-03-31T15:09:56;12.40;1.00
13673;DHT22;6909;52.202;9.876;2023-03-31T15:12:23;12.60;1.00
13673;DHT22;6909;52.202;9.876;2023-03-31T15:14:54;12.70;1.00
13673;DHT22;6909;52.202;9.876;2023-03-31T15:17:27;12.90;1.00
13673;DHT22;6909;52.202;9.876;2023-03-31T15:19:56;13.10;1.00
13673;DHT22;6909;52.202;9.876;2023-03-31T15:22:25;13.20;99.90
13673;DHT22;6909;52.202;9.876;2023-03-31T15:24:52;13.20;99.90
13673;DHT22;6909;52.202;9.876;2023-03-31T15:27:26;13.10;99.90
13673;DHT22;6909;52.202;9.876;2023-03-31T15:29:58;13.10;99.90
13673;DHT22;6909;52.202;9.876;2023-03-31T15:32:28;12.80;30.40
13673;DHT22;6909;52.202;9.876;2023-03-31T15:34:58;12.80;1.00
13673;DHT22;6909;52.202;9.876;2023-03-31T15:37:30;12.70;1.00
13673;DHT22;6909;52.202;9.876;2023-03-31T15:40:00;12.70;11.90
13673;DHT22;6909;52.202;9.876;2023-03-31T15:42:31;12.60;15.40
13673;DHT22;6909;52.202;9.876;2023-03-31T15:45:35;12.50;1.00
13673;DHT22;6909;52.202;9.876;2023-03-31T15:48:03;12.60;1.00
13673;DHT22;6909;52.202;9.876;2023-03-31T15:50:31;12.50;1.00
13673;DHT22;6909;52.202;9.876;2023-03-31T15:52:59;12.50;1.00
13673;DHT22;6909;52.202;9.876;2023-03-31T15:55:29;12.40;1.00
13673;DHT22;6909;52.202;9.876;2023-03-31T15:57:57;12.40;1.00
13673;DHT22;6909;52.202;9.876;2023-03-31T16:00:43;12.30;1.00
13673;DHT22;6909;52.202;9.876;2023-03-31T16:03:14;12.30;1.00
13673;DHT22;6909;52.202;9.876;2023-03-31T16:05:48;12.20;1.00
13673;DHT22;6909;52.202;9.876;2023-03-31T16:08:20;12.30;1.00
13673;DHT22;6909;52.202;9.876;2023-03-31T16:10:48;12.30;1.00
13673;DHT22;6909;52.202;9.876;2023-03-31T16:13:20;12.30;1.00
13673;DHT22;6909;52.202;9.876;2023-03-31T16:15:50;12.30;1.00
13673;DHT22;6909;52.202;9.876;2023-03-31T16:18:25;12.40;1.00
13673;DHT22;6909;52.202;9.876;2023-03-31T16:20:55;12.30;1.00
13673;DHT22;6909;52.202;9.876;2023-03-31T16:23:23;12.20;1.00
13673;DHT22;6909;52.202;9.876;2023-03-31T16:25:51;12.10;1.00
13673;DHT22;6909;52.202;9.876;2023-03-31T16:28:20;12.10;1.00
13673;DHT22;6909;52.202;9.876;2023-03-31T16:30:49;12.00;1.00
13673;DHT22;6909;52.202;9.876;2023-03-31T16:33:16;12.00;1.00
13673;DHT22;6909;52.202;9.876;2023-03-31T16:35:45;11.90;1.00
13673;DHT22;6909;52.202;9.876;2023-03-31T16:38:13;11.90;1.00